Time;durP1;ratioP1;P1;durP2;ratioP2;P2;SDS_P1;SDS_P2;PMS_P1;PMS_P2;Temp;Humidity;BMP_temperature;BMP_pressure;BME280_temperature;BME280_humidity;BME280_pressure;Samples;Min_cycle;Max_cycle;Signal;HPM_P1;HPM_P2
2021/01/08 00:01:43;;;;;;;78.60;46.33;;;102.40;2227.20;;;;;;4993117;28;20038;-72
2021/01/08 00:04:09;;;;;;;69.17;42.63;;;102.40;2227.20;;;;;;4993278;28;20031;-74
2021/01/08 00:06:35;;;;;;;68.93;42.23;;;102.40;2227.20;;;;;;4993236;28;20030;-74
2021/01/08 00:09:01;;;;;;;64.30;40.70;;;102.40;2227.20;;;;;;5026206;28;20038;-75
2021/01/08 00:11:27;;;;;;;64.03;41.43;;;102.40;2227.20;;;;;;4994225;28;20034;-74
2021/01/08 00:13:53;;;;;;;61.47;39.63;;;77.70;2227.20;;;;;;4994195;28;20105;-75
2021/01/08 00:16:20;;;;;;;63.50;39.93;;;77.70;2227.20;;;;;;4992894;28;20451;-75
2021/01/08 00:18:47;;;;;;;64.03;41.73;;;77.70;2227.20;;;;;;4994208;28;20479;-75
2021/01/08 00:21:13;;;;;;;63.63;41.07;;;102.40;2227.20;;;;;;4994028;28;20038;-74
2021/01/08 00:23:39;;;;;;;64.90;41.37;;;102.40;2227.20;;;;;;4994059;28;20475;-75
2021/01/08 00:26:05;;;;;;;69.17;43.73;;;102.40;2227.20;;;;;;4999527;28;20037;-75
2021/01/08 00:28:31;;;;;;;85.93;50.03;;;102.40;2227.20;;;;;;5003288;28;20035;-75
2021/01/08 00:30:57;;;;;;;83.83;49.07;;;102.40;2227.20;;;;;;4996480;28;20045;-74
2021/01/08 00:33:23;;;;;;;77.37;49.17;;;77.70;2227.20;;;;;;4994169;28;20022;-72
2021/01/08 00:35:49;;;;;;;83.67;51.87;;;77.70;2227.20;;;;;;4994088;28;20153;-74
2021/01/08 00:38:15;;;;;;;72.53;45.47;;;102.40;2227.20;;;;;;4994107;28;20117;-72
2021/01/08 00:40:41;;;;;;;69.43;42.73;;;102.40;2227.20;;;;;;4994028;28;20050;-75
2021/01/08 00:43:07;;;;;;;66.40;42.33;;;102.40;2227.20;;;;;;4994040;28;20026;-74
2021/01/08 00:45:33;;;;;;;64.33;41.43;;;102.40;2227.20;;;;;;4994128;28;20037;-72
2021/01/08 00:47:59;;;;;;;57.83;37.57;;;102.40;2227.20;;;;;;4993783;28;20041;-74
2021/01/08 00:50:25;;;;;;;62.73;39.03;;;102.40;2227.20;;;;;;4994043;28;20105;-72
2021/01/08 00:52:51;;;;;;;71.33;42.70;;;102.40;2227.20;;;;;;4993989;28;20455;-71
2021/01/08 00:55:16;;;;;;;59.57;36.00;;;77.70;2227.20;;;;;;4994042;28;20026;-75
2021/01/08 00:57:42;;;;;;;50.90;32.43;;;77.70;2227.20;;;;;;4994004;28;20118;-72
2021/01/08 01:00:09;;;;;;;53.50;33.93;;;102.40;2227.20;;;;;;4993839;28;20022;-75
2021/01/08 01:02:35;;;;;;;55.20;33.77;;;102.40;2227.20;;;;;;4993911;28;20027;-72
2021/01/08 01:05:02;;;;;;;64.80;37.00;;;77.70;2227.20;;;;;;4994240;28;20026;-75
2021/01/08 01:07:28;;;;;;;53.73;34.13;;;77.70;2227.20;;;;;;4993941;28;20057;-72
2021/01/08 01:09:53;;;;;;;47.50;30.97;;;77.70;2227.20;;;;;;4992573;28;20368;-72
2021/01/08 01:12:19;;;;;;;42.77;29.23;;;77.70;2227.20;;;;;;4993787;28;20025;-71
2021/01/08 01:14:45;;;;;;;43.67;29.63;;;77.70;2227.20;;;;;;4993775;28;20479;-72
2021/01/08 01:17:11;;;;;;;43.70;28.80;;;77.70;2227.20;;;;;;4993752;28;20033;-74
2021/01/08 01:19:37;;;;;;;43.33;30.00;;;77.60;2227.20;;;;;;4993691;28;20038;-73
2021/01/08 01:22:03;;;;;;;42.63;29.17;;;77.60;2227.20;;;;;;4994034;28;20113;-72
2021/01/08 01:24:29;;;;;;;40.93;28.60;;;77.60;2227.20;;;;;;4993752;28;20030;-71
2021/01/08 01:26:58;;;;;;;40.70;28.23;;;77.60;2227.20;;;;;;4993733;28;20037;-75
2021/01/08 01:29:24;;;;;;;42.17;27.57;;;77.50;2227.20;;;;;;4993769;28;20027;-71
2021/01/08 01:31:51;;;;;;;42.03;27.13;;;77.60;2227.20;;;;;;4992508;28;20022;-75
2021/01/08 01:34:17;;;;;;;42.43;27.83;;;77.60;2227.20;;;;;;4992378;28;20030;-72
2021/01/08 01:36:45;;;;;;;40.90;27.57;;;77.60;2227.20;;;;;;4993624;28;20030;-73
2021/01/08 01:39:14;;;;;;;41.93;26.57;;;77.60;2227.20;;;;;;4993858;28;20023;-75
2021/01/08 01:41:42;;;;;;;39.60;26.17;;;77.50;2227.20;;;;;;4994085;28;20039;-75
2021/01/08 01:44:08;;;;;;;43.87;27.67;;;77.60;2227.20;;;;;;4995971;28;20494;-71
2021/01/08 01:46:34;;;;;;;36.30;25.50;;;77.60;2227.20;;;;;;4997446;28;20117;-75
2021/01/08 01:49:00;;;;;;;37.53;25.27;;;77.60;2227.20;;;;;;4995506;28;20050;-75
2021/01/08 01:51:27;;;;;;;38.40;24.80;;;77.70;2227.20;;;;;;4997029;28;20080;-72
2021/01/08 01:53:53;;;;;;;36.37;25.40;;;77.70;2227.20;;;;;;4996907;28;20022;-72
2021/01/08 01:56:19;;;;;;;36.63;24.47;;;77.70;2227.20;;;;;;4997570;28;20030;-72
2021/01/08 01:58:45;;;;;;;36.73;26.23;;;77.60;2227.20;;;;;;4997077;28;20022;-75
2021/01/08 02:01:11;;;;;;;36.07;24.43;;;77.60;2227.20;;;;;;4996935;28;20045;-72
2021/01/08 02:03:46;;;;;;;33.97;24.33;;;77.60;2227.20;;;;;;4995563;28;20022;-73
2021/01/08 02:06:15;;;;;;;36.90;24.07;;;77.70;2227.20;;;;;;4997078;28;20053;-72
2021/01/08 02:08:46;;;;;;;34.73;23.73;;;77.70;2227.20;;;;;;4996745;28;20037;-75
2021/01/08 02:11:15;;;;;;;36.70;24.93;;;77.70;2227.20;;;;;;4996689;28;20034;-71
2021/01/08 02:14:10;;;;;;;32.07;22.57;;;77.70;2227.20;;;;;;4996619;28;20034;-76
2021/01/08 02:16:39;;;;;;;33.63;23.03;;;77.70;2227.20;;;;;;4996730;28;20076;-72
2021/01/08 02:19:09;;;;;;;33.80;23.43;;;77.70;2227.20;;;;;;4996551;28;20479;-72
2021/01/08 02:21:44;;;;;;;35.10;22.97;;;77.60;2227.20;;;;;;4996422;28;20112;-75
2021/01/08 02:24:19;;;;;;;34.40;23.63;;;77.70;2227.20;;;;;;4996747;28;20019;-71
2021/01/08 02:26:46;;;;;;;36.37;25.23;;;77.60;2227.20;;;;;;4996406;28;20027;-72
2021/01/08 02:29:12;;;;;;;34.03;23.73;;;77.60;2227.20;;;;;;4997023;28;20033;-71
2021/01/08 02:31:39;;;;;;;39.37;24.50;;;77.60;2227.20;;;;;;4996215;28;20030;-72
2021/01/08 02:34:06;;;;;;;36.00;24.87;;;77.60;2227.20;;;;;;4996241;28;20018;-72
2021/01/08 02:36:36;;;;;;;35.57;24.47;;;77.60;2227.20;;;;;;4996199;28;20085;-72
2021/01/08 02:39:02;;;;;;;32.67;23.23;;;77.60;2227.20;;;;;;4996234;28;20026;-72
2021/01/08 02:41:29;;;;;;;33.07;23.73;;;77.70;2227.20;;;;;;4996260;28;20537;-72
2021/01/08 02:43:57;;;;;;;38.87;24.50;;;77.70;2227.20;;;;;;4996053;28;20439;-73
2021/01/08 02:46:23;;;;;;;35.60;25.83;;;77.70;2227.20;;;;;;4995980;28;20030;-72
2021/01/08 02:48:49;;;;;;;33.07;23.93;;;77.70;2227.20;;;;;;4995735;28;20582;-72
2021/01/08 02:51:15;;;;;;;39.53;24.27;;;77.70;2227.20;;;;;;4995966;28;20033;-72
2021/01/08 02:53:42;;;;;;;30.60;22.83;;;77.70;2227.20;;;;;;4994888;28;20109;-72
2021/01/08 02:56:13;;;;;;;38.60;24.93;;;102.60;2227.20;;;;;;4994617;28;20033;-72
2021/01/08 02:58:40;;;;;;;36.07;24.83;;;77.70;2227.20;;;;;;4995822;28;20103;-72
2021/01/08 03:01:08;;;;;;;35.37;24.07;;;77.70;2227.20;;;;;;4995698;28;20030;-72
2021/01/08 03:03:34;;;;;;;34.60;24.00;;;77.70;2227.20;;;;;;4995768;28;20402;-72
2021/01/08 03:06:02;;;;;;;34.03;23.73;;;77.70;2227.20;;;;;;4995613;28;20129;-72
2021/01/08 03:08:31;;;;;;;36.20;24.87;;;77.70;2227.20;;;;;;4995658;28;20061;-72
2021/01/08 03:10:58;;;;;;;35.90;24.53;;;77.70;2227.20;;;;;;4995615;28;20027;-75
2021/01/08 03:13:25;;;;;;;35.77;24.97;;;77.70;2227.20;;;;;;4995601;28;20483;-72
2021/01/08 03:15:51;;;;;;;35.13;25.57;;;77.70;2227.20;;;;;;4995487;28;20122;-74
2021/01/08 03:18:17;;;;;;;34.43;24.47;;;77.70;2227.20;;;;;;4994195;28;20391;-72
2021/01/08 03:20:43;;;;;;;37.37;25.77;;;77.60;2227.20;;;;;;4995314;28;20042;-72
2021/01/08 03:23:09;;;;;;;42.63;27.23;;;77.70;2227.20;;;;;;4995417;28;20053;-75
2021/01/08 03:25:35;;;;;;;38.40;26.33;;;77.70;2227.20;;;;;;4995500;28;20026;-72
2021/01/08 03:28:01;;;;;;;38.23;26.97;;;77.70;2227.20;;;;;;4995219;28;20022;-75
2021/01/08 03:30:27;;;;;;;37.37;26.83;;;77.70;2227.20;;;;;;4995194;28;20030;-72
2021/01/08 03:32:52;;;;;;;39.87;27.27;;;77.70;2227.20;;;;;;4995071;28;20042;-72
2021/01/08 03:35:19;;;;;;;38.83;27.23;;;77.70;2227.20;;;;;;4995129;28;20026;-72
2021/01/08 03:37:45;;;;;;;39.17;26.93;;;77.70;2227.20;;;;;;4995069;28;20463;-72
2021/01/08 03:40:11;;;;;;;36.43;26.60;;;77.70;2227.20;;;;;;4993560;28;20041;-72
2021/01/08 03:42:37;;;;;;;37.90;26.77;;;77.70;2227.20;;;;;;4994939;28;20395;-72
2021/01/08 03:45:04;;;;;;;44.63;29.20;;;77.70;2227.20;;;;;;4995209;28;20022;-72
2021/01/08 03:47:30;;;;;;;39.50;27.67;;;77.70;2227.20;;;;;;4993435;28;20077;-73
2021/01/08 03:49:56;;;;;;;38.67;26.63;;;77.70;2227.20;;;;;;4994777;28;20057;-75
2021/01/08 03:52:22;;;;;;;42.33;29.00;;;77.70;2227.20;;;;;;4995054;28;20038;-72
2021/01/08 03:54:48;;;;;;;38.90;27.27;;;77.70;2227.20;;;;;;4994651;28;20023;-72
2021/01/08 03:57:14;;;;;;;44.57;29.20;;;77.70;2227.20;;;;;;4993449;28;20019;-75
2021/01/08 03:59:39;;;;;;;42.70;27.07;;;77.70;2227.20;;;;;;4994669;28;20101;-75
2021/01/08 04:02:06;;;;;;;42.37;28.33;;;77.70;2227.20;;;;;;4993210;28;20128;-72
2021/01/08 04:04:32;;;;;;;39.80;27.87;;;102.40;2227.20;;;;;;4994389;28;20471;-71
2021/01/08 04:06:58;;;;;;;45.40;29.17;;;102.40;2227.20;;;;;;4994653;28;20023;-75
2021/01/08 04:09:24;;;;;;;38.83;27.53;;;77.70;2227.20;;;;;;4994491;28;20466;-72
2021/01/08 04:11:50;;;;;;;41.83;28.87;;;77.70;2227.20;;;;;;4994471;28;20081;-74
2021/01/08 04:14:16;;;;;;;40.30;27.40;;;77.70;2227.20;;;;;;4993084;28;20033;-72
2021/01/08 04:16:42;;;;;;;39.83;28.40;;;102.40;2227.20;;;;;;4994568;28;20035;-72
2021/01/08 04:19:08;;;;;;;36.87;27.20;;;77.70;2227.20;;;;;;4994397;28;20089;-73
2021/01/08 04:21:35;;;;;;;37.90;26.60;;;77.70;2227.20;;;;;;4994213;28;20085;-72
2021/01/08 04:24:01;;;;;;;38.23;28.17;;;77.70;2227.20;;;;;;4994347;28;20054;-75
2021/01/08 04:26:28;;;;;;;38.00;28.03;;;77.70;2227.20;;;;;;4994263;28;20089;-72
2021/01/08 04:28:54;;;;;;;36.93;26.47;;;102.40;2227.20;;;;;;4994249;28;20026;-72
2021/01/08 04:31:20;;;;;;;37.33;26.33;;;102.40;2227.20;;;;;;4994518;28;20062;-75
2021/01/08 04:33:46;;;;;;;37.57;27.13;;;77.70;2227.20;;;;;;4994135;28;20061;-72
2021/01/08 04:36:12;;;;;;;38.80;28.20;;;102.40;2227.20;;;;;;4994166;28;20368;-72
2021/01/08 04:38:42;;;;;;;40.30;28.00;;;102.40;2227.20;;;;;;4994140;28;20475;-72
2021/01/08 04:41:08;;;;;;;36.07;26.77;;;102.40;2227.20;;;;;;4994024;28;20494;-75
2021/01/08 04:43:37;;;;;;;38.73;26.53;;;102.40;2227.20;;;;;;4994059;28;20027;-72
2021/01/08 04:46:29;;;;;;;36.47;25.53;;;102.40;2227.20;;;;;;4994123;28;20050;-73
2021/01/08 04:49:06;;;;;;;45.80;27.43;;;102.40;2227.20;;;;;;4993832;28;20403;-73
2021/01/08 04:51:36;;;;;;;40.27;27.33;;;77.70;2227.20;;;;;;4994337;28;20042;-72
2021/01/08 04:54:04;;;;;;;37.70;27.57;;;102.40;2227.20;;;;;;4992745;28;20434;-72
2021/01/08 04:56:37;;;;;;;41.60;28.43;;;102.40;2227.20;;;;;;4994015;28;20022;-75
2021/01/08 04:59:03;;;;;;;41.83;28.38;;;77.70;2227.20;;;;;;4993967;28;20026;-73
2021/01/08 05:01:30;;;;;;;38.77;26.97;;;77.70;2227.20;;;;;;4994383;28;20035;-72
2021/01/08 05:03:56;;;;;;;39.80;28.23;;;77.70;2227.20;;;;;;4993913;28;20031;-74
2021/01/08 05:06:23;;;;;;;36.97;27.20;;;77.70;2227.20;;;;;;4994394;28;20478;-73
2021/01/08 05:08:49;;;;;;;41.70;28.33;;;77.70;2227.20;;;;;;4993706;28;20022;-72
2021/01/08 05:11:26;;;;;;;37.67;27.73;;;77.70;2227.20;;;;;;4993807;28;20045;-72
2021/01/08 05:13:56;;;;;;;39.57;28.30;;;77.70;2227.20;;;;;;4993871;28;20494;-73
2021/01/08 05:16:25;;;;;;;39.63;27.40;;;102.40;2227.20;;;;;;4993880;28;20049;-72
2021/01/08 05:18:52;;;;;;;37.37;27.40;;;77.70;2227.20;;;;;;4997676;28;20022;-75
2021/01/08 05:21:19;;;;;;;44.57;28.63;;;102.40;2227.20;;;;;;4997679;28;20031;-72
2021/01/08 05:23:49;;;;;;;37.10;27.33;;;102.40;2227.20;;;;;;4997560;28;20105;-72
2021/01/08 05:26:15;;;;;;;39.07;28.30;;;77.70;2227.20;;;;;;4997481;28;20118;-72
2021/01/08 05:28:53;;;;;;;40.77;28.37;;;77.70;2227.20;;;;;;4996477;28;20053;-74
2021/01/08 05:31:21;;;;;;;46.63;31.90;;;77.70;2227.20;;;;;;4997475;28;20039;-72
2021/01/08 05:33:48;;;;;;;43.87;29.90;;;102.40;2227.20;;;;;;4997402;28;20430;-74
2021/01/08 05:36:16;;;;;;;39.80;29.17;;;102.40;2227.20;;;;;;4997310;28;20084;-72
2021/01/08 05:38:47;;;;;;;48.07;33.10;;;102.40;2227.20;;;;;;4996067;28;20109;-72
2021/01/08 05:41:13;;;;;;;43.43;30.37;;;102.40;2227.20;;;;;;4997208;28;20041;-72
2021/01/08 05:43:41;;;;;;;46.43;32.37;;;102.40;2227.20;;;;;;5028728;28;20435;-75
2021/01/08 05:46:16;;;;;;;43.63;32.80;;;102.40;2227.20;;;;;;4997167;28;20026;-72
2021/01/08 05:48:54;;;;;;;46.80;33.47;;;102.40;2227.20;;;;;;4995615;28;20077;-72
2021/01/08 05:51:22;;;;;;;42.10;30.30;;;102.40;2227.20;;;;;;4995840;28;20089;-72
2021/01/08 05:53:49;;;;;;;42.53;30.63;;;102.40;2227.20;;;;;;4997087;28;20022;-72
2021/01/08 05:56:22;;;;;;;51.10;33.93;;;102.40;2227.20;;;;;;4997045;28;20118;-75
2021/01/08 05:58:49;;;;;;;46.78;32.95;;;102.40;2227.20;;;;;;4995707;28;20093;-72
2021/01/08 06:01:16;;;;;;;43.60;31.17;;;102.40;2227.20;;;;;;4997241;28;20039;-72
2021/01/08 06:03:44;;;;;;;42.07;31.73;;;102.40;2227.20;;;;;;4996920;28;20035;-73
2021/01/08 06:06:10;;;;;;;46.40;32.13;;;102.40;2227.20;;;;;;4996913;28;20030;-75
2021/01/08 06:08:50;;;;;;;55.23;36.87;;;102.40;2227.20;;;;;;4996581;28;20030;-74
2021/01/08 06:11:20;;;;;;;49.50;32.63;;;102.40;2227.20;;;;;;4996618;28;20022;-72
2021/01/08 06:13:51;;;;;;;45.73;32.10;;;102.50;2227.20;;;;;;4996630;28;20026;-74
2021/01/08 06:16:19;;;;;;;53.07;33.97;;;102.50;2227.20;;;;;;4995372;28;20026;-74
2021/01/08 06:18:50;;;;;;;45.13;32.30;;;102.40;2227.20;;;;;;4995311;28;20026;-72
2021/01/08 06:21:16;;;;;;;45.73;30.80;;;102.50;2227.20;;;;;;4996369;28;20038;-72
2021/01/08 06:23:44;;;;;;;41.93;32.00;;;102.40;2227.20;;;;;;4996473;28;20030;-73
2021/01/08 06:26:18;;;;;;;47.33;35.17;;;102.40;2227.20;;;;;;4996449;28;20364;-72
2021/01/08 06:28:51;;;;;;;58.65;36.17;;;102.40;2227.20;;;;;;4996321;28;20097;-72
2021/01/08 06:31:25;;;;;;;115.15;59.55;;;102.40;2227.20;;;;;;4996324;28;20050;-75
2021/01/08 06:33:56;;;;;;;74.90;43.50;;;102.40;2227.20;;;;;;4996250;28;20025;-75
2021/01/08 06:36:23;;;;;;;64.63;38.80;;;102.40;2227.20;;;;;;4996465;28;20026;-72
2021/01/08 06:38:52;;;;;;;54.93;35.67;;;102.40;2227.20;;;;;;4996330;28;20072;-75
2021/01/08 06:41:18;;;;;;;62.43;40.10;;;102.40;2227.20;;;;;;4996259;28;20058;-74
2021/01/08 06:43:50;;;;;;;90.27;54.10;;;102.40;2227.20;;;;;;4994640;28;20088;-72
2021/01/08 06:46:27;;;;;;;89.33;53.27;;;102.50;2227.20;;;;;;4996075;28;20467;-72
2021/01/08 06:48:59;;;;;;;72.90;47.33;;;102.50;2227.20;;;;;;4995848;28;20096;-72
2021/01/08 06:51:30;;;;;;;56.23;40.03;;;102.50;2227.20;;;;;;4995954;28;20490;-72
2021/01/08 06:53:59;;;;;;;49.83;35.63;;;102.60;2227.20;;;;;;4996020;28;20479;-75
2021/01/08 06:56:32;;;;;;;49.47;35.53;;;102.50;2227.20;;;;;;4995805;28;20036;-74
2021/01/08 06:58:59;;;;;;;50.75;35.78;;;102.60;2227.20;;;;;;5027507;28;20423;-72
2021/01/08 07:01:31;;;;;;;72.93;48.43;;;102.60;2227.20;;;;;;4995523;28;20050;-73
2021/01/08 07:03:58;;;;;;;79.97;54.80;;;102.60;2227.20;;;;;;4995644;28;20097;-74
2021/01/08 07:06:24;;;;;;;94.37;65.93;;;102.60;2227.20;;;;;;4995625;28;20514;-72
2021/01/08 07:08:50;;;;;;;78.50;48.37;;;102.60;2227.20;;;;;;4994310;28;20019;-72
2021/01/08 07:11:25;;;;;;;69.03;42.00;;;102.50;2227.20;;;;;;4995804;28;20498;-75
2021/01/08 07:14:14;;;;;;;59.40;35.43;;;102.50;2227.20;;;;;;4994311;28;20030;-72
2021/01/08 07:16:47;;;;;;;47.73;32.37;;;102.60;2227.20;;;;;;4995773;28;20023;-75
2021/01/08 07:19:15;;;;;;;51.15;34.28;;;102.50;2227.20;;;;;;4995432;28;20061;-73
2021/01/08 07:21:47;;;;;;;46.43;31.67;;;102.50;2227.20;;;;;;4995346;28;20464;-75
2021/01/08 07:24:14;;;;;;;51.23;32.00;;;102.50;2227.20;;;;;;4995059;28;20505;-72
2021/01/08 07:26:40;;;;;;;48.83;32.80;;;102.50;2227.20;;;;;;4995497;28;20551;-72
2021/01/08 07:29:08;;;;;;;95.60;56.67;;;102.50;2227.20;;;;;;4995220;28;20096;-75
2021/01/08 07:31:36;;;;;;;70.43;44.27;;;102.60;2227.20;;;;;;4995035;28;20015;-72
2021/01/08 07:34:05;;;;;;;87.27;58.13;;;102.50;2227.20;;;;;;4993284;28;20194;-72
2021/01/08 07:36:32;;;;;;;72.33;53.00;;;102.50;2227.20;;;;;;4993175;28;20050;-73
2021/01/08 07:38:59;;;;;;;81.77;61.13;;;102.50;2227.20;;;;;;4993022;28;20035;-72
2021/01/08 07:41:31;;;;;;;59.60;43.97;;;102.60;2227.20;;;;;;4992793;28;20096;-72
2021/01/08 07:43:57;;;;;;;58.50;40.27;;;102.60;2227.20;;;;;;4991919;28;20050;-72
2021/01/08 07:46:28;;;;;;;57.50;40.30;;;102.60;2227.20;;;;;;4993084;28;20030;-72
2021/01/08 07:48:57;;;;;;;64.47;44.63;;;102.50;2227.20;;;;;;4994550;28;20077;-74
2021/01/08 07:51:43;;;;;;;60.27;41.03;;;102.40;2227.20;;;;;;4994891;28;20027;-72
2021/01/08 07:54:09;;;;;;;52.87;38.33;;;102.40;2227.20;;;;;;4995035;28;20018;-72
2021/01/08 07:56:34;;;;;;;69.27;50.70;;;102.40;2227.20;;;;;;4995044;28;20023;-71
2021/01/08 07:59:06;;;;;;;91.83;54.77;;;102.40;2227.20;;;;;;4995220;28;20029;-75
2021/01/08 08:01:33;;;;;;;92.43;55.10;;;102.50;2227.20;;;;;;4993533;28;20049;-72
2021/01/08 08:04:09;;;;;;;83.83;49.00;;;102.50;2227.20;;;;;;4994656;28;20029;-76
2021/01/08 08:06:39;;;;;;;55.53;39.03;;;102.40;2227.20;;;;;;4993564;28;20479;-72
2021/01/08 08:09:06;;;;;;;49.20;34.40;;;102.40;2227.20;;;;;;4994986;28;20455;-72
2021/01/08 08:11:37;;;;;;;76.07;52.63;;;102.40;2227.20;;;;;;4994911;28;20367;-74
2021/01/08 08:14:05;;;;;;;61.60;42.37;;;102.50;2227.20;;;;;;4993228;28;20022;-72
2021/01/08 08:16:38;;;;;;;132.00;72.10;;;102.40;2227.20;;;;;;4994540;28;20069;-72
2021/01/08 08:19:05;;;;;;;101.20;57.73;;;102.50;2227.20;;;;;;4994496;28;20491;-72
2021/01/08 08:21:32;;;;;;;88.47;52.07;;;102.40;2227.20;;;;;;4993407;28;20034;-71
2021/01/08 08:24:05;;;;;;;81.10;47.00;;;102.40;2227.20;;;;;;4995265;28;20077;-76
2021/01/08 08:26:35;;;;;;;63.65;38.78;;;102.50;2227.20;;;;;;4994846;28;20026;-84
2021/01/08 08:29:04;;;;;;;48.97;33.43;;;102.50;2227.20;;;;;;4994287;28;20487;-84
2021/01/08 08:31:32;;;;;;;48.53;33.00;;;102.50;2227.20;;;;;;4993049;28;20030;-84
2021/01/08 08:33:59;;;;;;;60.03;40.20;;;102.50;2227.20;;;;;;4993135;28;20025;-84
2021/01/08 08:36:26;;;;;;;80.73;51.43;;;102.50;2227.20;;;;;;4994216;28;20541;-84
2021/01/08 08:39:13;;;;;;;381.67;192.93;;;102.50;2227.20;;;;;;4993981;28;20023;-77
2021/01/08 08:41:48;;;;;;;170.50;117.70;;;102.60;2227.20;;;;;;4992712;28;20034;-78
2021/01/08 08:44:16;;;;;;;106.07;62.53;;;102.50;2227.20;;;;;;4994229;28;20105;-83
2021/01/08 08:46:44;;;;;;;81.57;49.60;;;102.60;2227.20;;;;;;4992852;28;20101;-74
2021/01/08 08:49:15;;;;;;;88.27;51.53;;;102.60;2227.20;;;;;;4992325;28;20456;-75
2021/01/08 08:51:45;;;;;;;100.40;58.90;;;102.70;2227.20;;;;;;4993049;28;20379;-83
2021/01/08 08:54:11;;;;;;;198.40;104.47;;;102.60;2227.20;;;;;;4996603;28;20060;-78
2021/01/08 08:56:57;;;;;;;121.27;67.97;;;102.70;2227.20;;;;;;4997093;28;20117;-79
2021/01/08 08:59:38;;;;;;;164.37;90.70;;;102.70;2227.20;;;;;;4996422;28;20029;-83
2021/01/08 09:02:08;;;;;;;119.50;69.30;;;102.70;2227.20;;;;;;4996300;28;20073;-82
2021/01/08 09:04:34;;;;;;;464.70;259.47;;;102.70;2227.20;;;;;;4997900;28;20467;-83
2021/01/08 09:07:07;;;;;;;687.37;388.83;;;102.70;2227.20;;;;;;4997954;28;20027;-82
2021/01/08 09:09:38;;;;;;;520.00;295.60;;;102.70;2227.20;;;;;;4996840;28;20029;-83
2021/01/08 09:12:32;;;;;;;462.30;252.73;;;102.70;2227.20;;;;;;4996320;28;20033;-81
2021/01/08 09:15:10;;;;;;;666.50;369.98;;;102.70;2227.20;;;;;;4994074;28;20050;-82
2021/01/08 09:17:42;;;;;;;448.63;240.77;;;102.80;2227.20;;;;;;4997953;28;20139;-84
2021/01/08 09:20:15;;;;;;;487.70;263.77;;;102.80;2227.20;;;;;;4996593;28;20022;-79
2021/01/08 09:22:41;;;;;;;633.97;310.53;;;102.80;2227.20;;;;;;4997554;28;20049;-81
2021/01/08 09:25:08;;;;;;;703.30;360.17;;;102.80;2227.20;;;;;;4997481;28;20110;-82
2021/01/08 09:27:35;;;;;;;792.17;391.03;;;102.80;2227.20;;;;;;4998670;28;20022;-83
2021/01/08 09:30:11;;;;;;;587.30;277.00;;;102.90;2227.20;;;;;;5015744;28;20100;-83
2021/01/08 09:32:37;;;;;;;874.77;441.00;;;102.90;2227.20;;;;;;5012494;28;20079;-83
2021/01/08 09:35:08;;;;;;;711.50;347.73;;;102.90;2227.20;;;;;;5002145;28;20026;-81
2021/01/08 09:37:38;;;;;;;558.20;310.07;;;102.90;2227.20;;;;;;4996047;28;20105;-82
2021/01/08 09:40:11;;;;;;;433.40;231.20;;;102.90;2227.20;;;;;;4997347;28;20022;-83
2021/01/08 09:42:38;;;;;;;699.85;354.02;;;102.90;2227.20;;;;;;4997292;28;20031;-75
2021/01/08 09:45:16;;;;;;;576.07;287.10;;;102.90;2227.20;;;;;;4995664;28;20495;-75
2021/01/08 09:47:42;;;;;;;674.00;337.67;;;102.90;2227.20;;;;;;4996997;28;20076;-83
2021/01/08 09:50:09;;;;;;;491.00;241.10;;;102.90;2227.20;;;;;;4996351;28;20026;-78
2021/01/08 09:52:35;;;;;;;639.43;360.67;;;103.00;2227.20;;;;;;4996866;28;20117;-81
2021/01/08 09:55:02;;;;;;;672.77;407.33;;;103.00;2227.20;;;;;;4997160;28;20150;-82
2021/01/08 09:57:30;;;;;;;273.70;158.80;;;102.90;2227.20;;;;;;4995897;28;20033;-82
2021/01/08 09:59:57;;;;;;;199.83;122.37;;;102.90;2227.20;;;;;;4996098;28;20023;-74
2021/01/08 10:02:52;;;;;;;126.13;82.23;;;103.00;2227.20;;;;;;4996515;28;20031;-74
2021/01/08 10:05:30;;;;;;;170.33;103.47;;;102.90;2227.20;;;;;;4992198;28;20031;-81
2021/01/08 10:07:57;;;;;;;95.70;59.03;;;103.00;2227.20;;;;;;4995584;28;20045;-82
2021/01/08 10:10:26;;;;;;;70.43;45.43;;;103.00;2227.20;;;;;;5028529;28;20046;-81
2021/01/08 10:12:59;;;;;;;71.23;43.57;;;103.00;2227.20;;;;;;4995854;28;20125;-81
2021/01/08 10:15:36;;;;;;;68.07;40.72;;;103.10;2227.20;;;;;;4996355;28;20474;-82
2021/01/08 10:18:11;;;;;;;61.80;38.97;;;103.00;2227.20;;;;;;5010679;28;20044;-80
2021/01/08 10:20:51;;;;;;;56.40;36.00;;;103.00;2227.20;;;;;;5016379;28;20133;-78
2021/01/08 10:23:21;;;;;;;55.03;36.83;;;103.00;2227.20;;;;;;5016069;28;20021;-81
2021/01/08 10:25:48;;;;;;;55.27;36.97;;;103.00;2227.20;;;;;;5016311;28;20021;-82
2021/01/08 10:28:22;;;;;;;53.23;35.60;;;103.10;2227.20;;;;;;5006508;28;20023;-82
2021/01/08 10:30:49;;;;;;;60.50;37.25;;;103.10;2227.20;;;;;;4995402;28;20045;-82
2021/01/08 10:33:16;;;;;;;65.03;38.07;;;103.00;2227.20;;;;;;4994985;28;20478;-82
2021/01/08 10:35:47;;;;;;;83.57;46.47;;;103.00;2227.20;;;;;;4997679;28;20037;-77
2021/01/08 10:38:13;;;;;;;78.77;46.60;;;103.00;2227.20;;;;;;5002081;28;20022;-80
2021/01/08 10:40:38;;;;;;;111.00;62.23;;;103.10;2227.20;;;;;;4993571;28;20541;-82
2021/01/08 10:43:04;;;;;;;114.00;63.00;;;103.20;2227.20;;;;;;4996780;28;20471;-77
2021/01/08 10:45:30;;;;;;;107.73;64.40;;;103.20;2227.20;;;;;;5004684;28;20101;-83
2021/01/08 10:47:56;;;;;;;88.83;55.20;;;103.20;2227.20;;;;;;5004181;28;20046;-83
2021/01/08 10:50:22;;;;;;;93.60;57.60;;;103.20;2227.20;;;;;;5005008;28;20110;-80
2021/01/08 10:52:48;;;;;;;87.70;59.47;;;103.20;2227.20;;;;;;5003002;28;20035;-83
2021/01/08 10:55:13;;;;;;;77.13;49.63;;;103.20;2227.20;;;;;;5003450;28;20030;-79
2021/01/08 10:57:39;;;;;;;87.03;55.80;;;103.30;2227.20;;;;;;5001586;28;20034;-82
2021/01/08 11:00:08;;;;;;;65.77;42.77;;;103.30;2227.20;;;;;;4994335;28;20037;-82
2021/01/08 11:02:35;;;;;;;77.37;45.77;;;103.30;2227.20;;;;;;4994244;28;20034;-82
2021/01/08 11:05:02;;;;;;;98.93;60.77;;;103.30;2227.20;;;;;;4994456;28;20022;-78
2021/01/08 11:07:27;;;;;;;76.63;48.43;;;103.30;2227.20;;;;;;4994601;28;20026;-83
2021/01/08 11:09:53;;;;;;;89.70;52.67;;;103.30;2227.20;;;;;;5009124;28;20030;-80
2021/01/08 11:12:19;;;;;;;94.13;53.87;;;128.00;2252.80;;;;;;5004999;28;20390;-76
2021/01/08 11:14:45;;;;;;;86.17;52.83;;;128.00;2252.80;;;;;;5014480;28;20091;-81
2021/01/08 11:17:11;;;;;;;95.87;58.80;;;128.00;2252.80;;;;;;5013529;28;20065;-82
2021/01/08 11:19:37;;;;;;;129.63;75.43;;;128.00;2252.80;;;;;;5014989;28;20026;-82
2021/01/08 11:22:03;;;;;;;126.83;73.90;;;128.00;2252.80;;;;;;5013646;28;20042;-76
2021/01/08 11:24:28;;;;;;;132.53;91.20;;;128.00;2252.80;;;;;;5014601;28;20030;-82
2021/01/08 11:26:54;;;;;;;166.93;101.10;;;128.10;2252.80;;;;;;5015966;28;20080;-81
2021/01/08 11:29:20;;;;;;;113.17;70.93;;;128.10;2252.80;;;;;;5015685;28;20054;-80
2021/01/08 11:31:46;;;;;;;124.50;74.30;;;128.10;2252.80;;;;;;5015968;28;20601;-78
2021/01/08 11:34:12;;;;;;;117.33;74.27;;;128.20;2252.80;;;;;;5015903;28;20029;-78
2021/01/08 11:36:38;;;;;;;98.07;62.83;;;128.20;2252.80;;;;;;5016197;28;20640;-80
2021/01/08 11:39:08;;;;;;;103.07;66.40;;;128.30;2252.80;;;;;;5016447;28;20048;-80
2021/01/08 11:41:33;;;;;;;96.50;60.07;;;128.30;2252.80;;;;;;5014555;28;20044;-78
2021/01/08 11:43:59;;;;;;;106.17;60.70;;;128.30;2252.80;;;;;;5017824;28;20026;-78
2021/01/08 11:46:25;;;;;;;90.03;56.63;;;128.40;2252.80;;;;;;5015730;28;20022;-78
2021/01/08 11:48:54;;;;;;;104.50;60.70;;;128.40;2252.80;;;;;;5031520;28;20517;-80
2021/01/08 11:51:23;;;;;;;99.27;62.03;;;128.40;2252.80;;;;;;5025796;28;20048;-80
2021/01/08 11:53:52;;;;;;;104.30;58.57;;;128.50;2252.80;;;;;;5032679;28;20373;-76
2021/01/08 11:56:25;;;;;;;124.83;71.33;;;128.40;2252.80;;;;;;5033374;28;20509;-77
2021/01/08 11:58:51;;;;;;;98.35;58.53;;;128.40;2252.80;;;;;;5032903;28;20442;-79
2021/01/08 12:01:17;;;;;;;141.03;89.60;;;128.50;2252.80;;;;;;5023271;28;20123;-79
2021/01/08 12:03:43;;;;;;;67.67;44.37;;;128.50;2252.80;;;;;;5014348;28;20046;-76
2021/01/08 12:06:09;;;;;;;69.10;46.80;;;128.50;2252.80;;;;;;5015073;28;20030;-76